sensor_id;sensor_type;location;lat;lon;timestamp;temperature;humidity
3690;DHT22;1861;50.240;8.596;2023-04-25T00:00:25;12.10;99.90
3690;DHT22;1861;50.240;8.596;2023-04-25T00:02:53;12.10;99.90
3690;DHT22;1861;50.240;8.596;2023-04-25T00:05:23;12.10;99.90
3690;DHT22;1861;50.240;8.596;2023-04-25T00:07:53;12.10;99.90
3690;DHT22;1861;50.240;8.596;2023-04-25T00:10:21;12.00;99.90
3690;DHT22;1861;50.240;8.596;2023-04-25T00:12:49;12.10;99.90
3690;DHT22;1861;50.240;8.596;2023-04-25T00:15:18;12.10;99.90
3690;DHT22;1861;50.240;8.596;2023-04-25T00:17:47;12.00;99.90
3690;DHT22;1861;50.240;8.596;2023-04-25T00:20:15;12.00;99.90
3690;DHT22;1861;50.240;8.596;2023-04-25T00:22:43;12.00;99.90
3690;DHT22;1861;50.240;8.596;2023-04-25T00:25:12;12.00;99.90
3690;DHT22;1861;50.240;8.596;2023-04-25T00:27:40;12.00;99.90
3690;DHT22;1861;50.240;8.596;2023-04-25T00:30:10;12.00;99.90
3690;DHT22;1861;50.240;8.596;2023-04-25T00:32:39;12.00;99.90
3690;DHT22;1861;50.240;8.596;2023-04-25T00:35:08;12.00;99.90
3690;DHT22;1861;50.240;8.596;2023-04-25T00:37:36;12.00;99.90
3690;DHT22;1861;50.240;8.596;2023-04-25T00:40:06;12.00;99.90
3690;DHT22;1861;50.240;8.596;2023-04-25T00:42:36;12.00;99.90
3690;DHT22;1861;50.240;8.596;2023-04-25T00:45:06;12.00;99.90
3690;DHT22;1861;50.240;8.596;2023-04-25T00:47:36;11.90;99.90
3690;DHT22;1861;50.240;8.596;2023-04-25T00:50:05;11.90;99.90
3690;DHT22;1861;50.240;8.596;2023-04-25T00:52:34;11.90;99.90
3690;DHT22;1861;50.240;8.596;2023-04-25T00:55:02;12.00;99.90
3690;DHT22;1861;50.240;8.596;2023-04-25T00:57:30;12.00;99.90
3690;DHT22;1861;50.240;8.596;2023-04-25T01:00:00;12.00;99.90
3690;DHT22;1861;50.240;8.596;2023-04-25T01:02:29;12.00;99.90
3690;DHT22;1861;50.240;8.596;2023-04-25T01:04:58;12.00;99.90
3690;DHT22;1861;50.240;8.596;2023-04-25T01:07:28;11.90;99.90
3690;DHT22;1861;50.240;8.596;2023-04-25T01:09:56;11.90;99.90
3690;DHT22;1861;50.240;8.596;2023-04-25T01:12:24;11.90;99.90
3690;DHT22;1861;50.240;8.596;2023-04-25T01:14:52;11.90;99.90
3690;DHT22;1861;50.240;8.596;2023-04-25T01:17:22;11.90;99.90
3690;DHT22;1861;50.240;8.596;2023-04-25T01:19:50;11.90;99.90
3690;DHT22;1861;50.240;8.596;2023-04-25T01:22:20;11.90;99.90
3690;DHT22;1861;50.240;8.596;2023-04-25T01:24:48;11.90;99.90
3690;DHT22;1861;50.240;8.596;2023-04-25T01:27:17;12.00;99.90
3690;DHT22;1861;50.240;8.596;2023-04-25T01:29:46;11.90;99.90
3690;DHT22;1861;50.240;8.596;2023-04-25T01:32:14;11.90;99.90
3690;DHT22;1861;50.240;8.596;2023-04-25T01:34:43;11.90;99.90
3690;DHT22;1861;50.240;8.596;2023-04-25T01:37:11;11.90;99.90
3690;DHT22;1861;50.240;8.596;2023-04-25T01:39:41;11.80;99.90
3690;DHT22;1861;50.240;8.596;2023-04-25T01:42:09;11.80;99.90
3690;DHT22;1861;50.240;8.596;2023-04-25T01:44:37;11.80;99.90
3690;DHT22;1861;50.240;8.596;2023-04-25T01:47:05;11.80;99.90
3690;DHT22;1861;50.240;8.596;2023-04-25T01:49:33;11.80;99.90
3690;DHT22;1861;50.240;8.596;2023-04-25T01:52:01;11.80;99.90
3690;DHT22;1861;50.240;8.596;2023-04-25T01:54:30;11.80;99.90
3690;DHT22;1861;50.240;8.596;2023-04-25T01:57:00;11.80;99.90
3690;DHT22;1861;50.240;8.596;2023-04-25T01:59:29;11.80;99.90
3690;DHT22;1861;50.240;8.596;2023-04-25T02:02:06;11.70;99.90
3690;DHT22;1861;50.240;8.596;2023-04-25T02:04:35;11.70;99.90
3690;DHT22;1861;50.240;8.596;2023-04-25T02:07:06;11.80;99.90
3690;DHT22;1861;50.240;8.596;2023-04-25T02:09:46;11.70;99.90
3690;DHT22;1861;50.240;8.596;2023-04-25T02:12:17;11.70;99.90
3690;DHT22;1861;50.240;8.596;2023-04-25T02:15:09;11.70;99.90
3690;DHT22;1861;50.240;8.596;2023-04-25T02:17:44;11.60;99.90
3690;DHT22;1861;50.240;8.596;2023-04-25T02:20:12;11.60;99.90
3690;DHT22;1861;50.240;8.596;2023-04-25T02:22:42;11.60;99.90
3690;DHT22;1861;50.240;8.596;2023-04-25T02:25:11;11.60;99.90
3690;DHT22;1861;50.240;8.596;2023-04-25T02:27:42;11.60;99.90
3690;DHT22;1861;50.240;8.596;2023-04-25T02:30:10;11.60;99.90
3690;DHT22;1861;50.240;8.596;2023-04-25T02:32:39;11.60;99.90
3690;DHT22;1861;50.240;8.596;2023-04-25T02:35:09;11.70;99.90
3690;DHT22;1861;50.240;8.596;2023-04-25T02:37:38;11.70;99.90
3690;DHT22;1861;50.240;8.596;2023-04-25T02:40:07;11.70;99.90
3690;DHT22;1861;50.240;8.596;2023-04-25T02:42:36;11.70;99.90
3690;DHT22;1861;50.240;8.596;2023-04-25T02:45:06;11.60;99.90
3690;DHT22;1861;50.240;8.596;2023-04-25T02:47:34;11.60;99.90
3690;DHT22;1861;50.240;8.596;2023-04-25T02:50:03;11.70;99.90
3690;DHT22;1861;50.240;8.596;2023-04-25T02:52:31;11.70;99.90
3690;DHT22;1861;50.240;8.596;2023-04-25T02:55:09;11.70;99.90
3690;DHT22;1861;50.240;8.596;2023-04-25T02:57:37;11.70;99.90
3690;DHT22;1861;50.240;8.596;2023-04-25T03:00:08;11.70;99.90
3690;DHT22;1861;50.240;8.596;2023-04-25T03:02:38;11.60;99.90
3690;DHT22;1861;50.240;8.596;2023-04-25T03:05:07;11.50;99.90
3690;DHT22;1861;50.240;8.596;2023-04-25T03:07:36;11.50;99.90
3690;DHT22;1861;50.240;8.596;2023-04-25T03:10:07;11.50;99.90
3690;DHT22;1861;50.240;8.596;2023-04-25T03:12:36;11.50;99.90
3690;DHT22;1861;50.240;8.596;2023-04-25T03:15:06;11.40;99.90
3690;DHT22;1861;50.240;8.596;2023-04-25T03:17:35;11.50;99.90
3690;DHT22;1861;50.240;8.596;2023-04-25T03:20:04;11.50;99.90
3690;DHT22;1861;50.240;8.596;2023-04-25T03:22:35;11.50;99.90
3690;DHT22;1861;50.240;8.596;2023-04-25T03:25:03;11.50;99.90
3690;DHT22;1861;50.240;8.596;2023-04-25T03:27:32;11.40;99.90
3690;DHT22;1861;50.240;8.596;2023-04-25T03:30:00;11.40;99.90
3690;DHT22;1861;50.240;8.596;2023-04-25T03:32:29;11.30;99.90
3690;DHT22;1861;50.240;8.596;2023-04-25T03:34:57;11.30;99.90
3690;DHT22;1861;50.240;8.596;2023-04-25T03:37:27;11.40;99.90
3690;DHT22;1861;50.240;8.596;2023-04-25T03:39:55;11.40;99.90
3690;DHT22;1861;50.240;8.596;2023-04-25T03:42:28;11.40;99.90
3690;DHT22;1861;50.240;8.596;2023-04-25T03:44:56;11.40;99.90
3690;DHT22;1861;50.240;8.596;2023-04-25T03:47:24;11.40;99.90
3690;DHT22;1861;50.240;8.596;2023-04-25T03:49:55;11.30;99.90
3690;DHT22;1861;50.240;8.596;2023-04-25T03:52:23;11.40;99.70
3690;DHT22;1861;50.240;8.596;2023-04-25T03:54:52;11.30;99.90
3690;DHT22;1861;50.240;8.596;2023-04-25T03:57:23;11.30;99.90
3690;DHT22;1861;50.240;8.596;2023-04-25T03:59:53;11.30;99.80
3690;DHT22;1861;50.240;8.596;2023-04-25T04:02:22;11.20;99.50
3690;DHT22;1861;50.240;8.596;2023-04-25T04:04:52;11.20;99.30
3690;DHT22;1861;50.240;8.596;2023-04-25T04:07:24;11.20;99.70
3690;DHT22;1861;50.240;8.596;2023-04-25T04:09:55;11.20;99.70
3690;DHT22;1861;50.240;8.596;2023-04-25T04:12:29;11.10;99.80
3690;DHT22;1861;50.240;8.596;2023-04-25T04:14:57;11.10;99.80
3690;DHT22;1861;50.240;8.596;2023-04-25T04:17:26;11.10;99.70
3690;DHT22;1861;50.240;8.596;2023-04-25T04:19:54;11.10;99.60
3690;DHT22;1861;50.240;8.596;2023-04-25T04:22:24;11.10;99.60
3690;DHT22;1861;50.240;8.596;2023-04-25T04:24:56;11.00;99.70
3690;DHT22;1861;50.240;8.596;2023-04-25T04:27:53;11.00;99.50
3690;DHT22;1861;50.240;8.596;2023-04-25T04:30:27;11.00;99.70
3690;DHT22;1861;50.240;8.596;2023-04-25T04:32:59;11.00;99.90
3690;DHT22;1861;50.240;8.596;2023-04-25T04:35:29;11.00;99.40
3690;DHT22;1861;50.240;8.596;2023-04-25T04:37:58;11.00;99.40
3690;DHT22;1861;50.240;8.596;2023-04-25T04:40:31;11.00;99.60
3690;DHT22;1861;50.240;8.596;2023-04-25T04:43:16;11.00;99.60
3690;DHT22;1861;50.240;8.596;2023-04-25T04:45:51;11.00;99.70
3690;DHT22;1861;50.240;8.596;2023-04-25T04:48:38;11.00;99.70
3690;DHT22;1861;50.240;8.596;2023-04-25T04:51:30;10.90;99.20
3690;DHT22;1861;50.240;8.596;2023-04-25T04:54:00;11.00;99.20
3690;DHT22;1861;50.240;8.596;2023-04-25T04:56:47;10.90;99.10
3690;DHT22;1861;50.240;8.596;2023-04-25T04:59:24;10.90;99.60
3690;DHT22;1861;50.240;8.596;2023-04-25T05:02:22;10.90;99.20
3690;DHT22;1861;50.240;8.596;2023-04-25T05:05:16;11.00;99.30
3690;DHT22;1861;50.240;8.596;2023-04-25T05:08:09;10.90;99.20
3690;DHT22;1861;50.240;8.596;2023-04-25T05:11:02;10.90;99.10
3690;DHT22;1861;50.240;8.596;2023-04-25T05:13:52;10.90;98.60
3690;DHT22;1861;50.240;8.596;2023-04-25T05:16:47;10.90;98.80
3690;DHT22;1861;50.240;8.596;2023-04-25T05:19:39;11.00;99.10
3690;DHT22;1861;50.240;8.596;2023-04-25T05:22:18;11.00;99.00
3690;DHT22;1861;50.240;8.596;2023-04-25T05:25:15;10.90;98.30
3690;DHT22;1861;50.240;8.596;2023-04-25T05:28:08;10.90;98.80
3690;DHT22;1861;50.240;8.596;2023-04-25T05:30:43;11.00;99.00
3690;DHT22;1861;50.240;8.596;2023-04-25T05:33:20;11.00;98.80
3690;DHT22;1861;50.240;8.596;2023-04-25T05:35:48;11.10;98.70
3690;DHT22;1861;50.240;8.596;2023-04-25T05:38:16;11.00;98.80
3690;DHT22;1861;50.240;8.596;2023-04-25T05:41:05;11.10;98.60
3690;DHT22;1861;50.240;8.596;2023-04-25T05:43:42;11.00;98.40
3690;DHT22;1861;50.240;8.596;2023-04-25T05:46:40;11.00;98.20
3690;DHT22;1861;50.240;8.596;2023-04-25T05:49:40;11.10;98.10
3690;DHT22;1861;50.240;8.596;2023-04-25T05:52:19;11.10;98.30
3690;DHT22;1861;50.240;8.596;2023-04-25T05:55:01;11.10;98.00
3690;DHT22;1861;50.240;8.596;2023-04-25T05:57:30;11.10;97.90
3690;DHT22;1861;50.240;8.596;2023-04-25T06:00:01;11.10;98.70
3690;DHT22;1861;50.240;8.596;2023-04-25T06:02:43;11.20;98.60
3690;DHT22;1861;50.240;8.596;2023-04-25T06:05:13;11.20;98.30
3690;DHT22;1861;50.240;8.596;2023-04-25T06:07:42;11.20;98.10
3690;DHT22;1861;50.240;8.596;2023-04-25T06:10:10;11.30;97.80
3690;DHT22;1861;50.240;8.596;2023-04-25T06:12:38;11.30;97.60
3690;DHT22;1861;50.240;8.596;2023-04-25T06:15:09;11.30;98.00
3690;DHT22;1861;50.240;8.596;2023-04-25T06:17:53;11.30;97.90
3690;DHT22;1861;50.240;8.596;2023-04-25T06:20:22;11.30;97.80
3690;DHT22;1861;50.240;8.596;2023-04-25T06:22:53;11.30;97.90
3690;DHT22;1861;50.240;8.596;2023-04-25T06:25:28;11.40;97.60
3690;DHT22;1861;50.240;8.596;2023-04-25T06:27:56;11.30;97.50
3690;DHT22;1861;50.240;8.596;2023-04-25T06:30:25;11.30;97.60
3690;DHT22;1861;50.240;8.596;2023-04-25T06:32:59;11.30;97.90
3690;DHT22;1861;50.240;8.596;2023-04-25T06:35:28;11.30;97.80
3690;DHT22;1861;50.240;8.596;2023-04-25T06:37:56;11.40;97.60
3690;DHT22;1861;50.240;8.596;2023-04-25T06:40:25;11.50;97.50
3690;DHT22;1861;50.240;8.596;2023-04-25T06:42:53;11.50;97.90
3690;DHT22;1861;50.240;8.596;2023-04-25T06:45:51;11.60;97.50
3690;DHT22;1861;50.240;8.596;2023-04-25T06:48:21;11.60;97.50
3690;DHT22;1861;50.240;8.596;2023-04-25T06:50:50;11.60;97.80
3690;DHT22;1861;50.240;8.596;2023-04-25T06:53:19;11.60;97.80
3690;DHT22;1861;50.240;8.596;2023-04-25T06:55:52;11.70;97.80
3690;DHT22;1861;50.240;8.596;2023-04-25T06:58:22;11.60;97.70
3690;DHT22;1861;50.240;8.596;2023-04-25T07:01:05;11.60;97.70
3690;DHT22;1861;50.240;8.596;2023-04-25T07:03:34;11.70;97.60
3690;DHT22;1861;50.240;8.596;2023-04-25T07:06:08;11.70;97.60
3690;DHT22;1861;50.240;8.596;2023-04-25T07:08:36;11.70;97.70
3690;DHT22;1861;50.240;8.596;2023-04-25T07:11:05;11.80;97.50
3690;DHT22;1861;50.240;8.596;2023-04-25T07:13:33;11.80;97.40
3690;DHT22;1861;50.240;8.596;2023-04-25T07:16:01;11.90;97.60
3690;DHT22;1861;50.240;8.596;2023-04-25T07:18:32;11.90;97.40
3690;DHT22;1861;50.240;8.596;2023-04-25T07:21:01;11.90;97.60
3690;DHT22;1861;50.240;8.596;2023-04-25T07:23:31;12.00;97.60
3690;DHT22;1861;50.240;8.596;2023-04-25T07:26:01;12.00;97.50
3690;DHT22;1861;50.240;8.596;2023-04-25T07:28:30;12.10;97.30
3690;DHT22;1861;50.240;8.596;2023-04-25T07:30:58;12.00;96.90
3690;DHT22;1861;50.240;8.596;2023-04-25T07:33:26;12.00;97.10
3690;DHT22;1861;50.240;8.596;2023-04-25T07:35:56;12.10;97.10
3690;DHT22;1861;50.240;8.596;2023-04-25T07:38:24;12.10;97.50
3690;DHT22;1861;50.240;8.596;2023-04-25T07:40:52;12.20;97.60
3690;DHT22;1861;50.240;8.596;2023-04-25T07:43:20;12.30;97.10
3690;DHT22;1861;50.240;8.596;2023-04-25T07:45:55;12.30;97.10
3690;DHT22;1861;50.240;8.596;2023-04-25T07:48:25;12.20;97.00
3690;DHT22;1861;50.240;8.596;2023-04-25T07:50:53;12.20;96.90
3690;DHT22;1861;50.240;8.596;2023-04-25T07:53:23;12.20;97.10
3690;DHT22;1861;50.240;8.596;2023-04-25T07:55:55;12.20;96.90
3690;DHT22;1861;50.240;8.596;2023-04-25T07:58:23;12.20;96.90
3690;DHT22;1861;50.240;8.596;2023-04-25T08:00:56;12.20;96.90
3690;DHT22;1861;50.240;8.596;2023-04-25T08:03:48;12.20;96.70
3690;DHT22;1861;50.240;8.596;2023-04-25T08:06:35;12.10;96.80
3690;DHT22;1861;50.240;8.596;2023-04-25T08:09:10;12.20;97.00
3690;DHT22;1861;50.240;8.596;2023-04-25T08:11:39;12.20;97.00
3690;DHT22;1861;50.240;8.596;2023-04-25T08:14:11;12.30;97.10
3690;DHT22;1861;50.240;8.596;2023-04-25T08:16:40;12.30;96.60
3690;DHT22;1861;50.240;8.596;2023-04-25T08:19:09;12.40;97.00
3690;DHT22;1861;50.240;8.596;2023-04-25T08:21:38;12.30;96.70
3690;DHT22;1861;50.240;8.596;2023-04-25T08:24:11;12.40;96.70
3690;DHT22;1861;50.240;8.596;2023-04-25T08:26:40;12.40;96.50
3690;DHT22;1861;50.240;8.596;2023-04-25T08:29:13;12.40;96.80
3690;DHT22;1861;50.240;8.596;2023-04-25T08:31:42;12.40;96.70
3690;DHT22;1861;50.240;8.596;2023-04-25T08:34:12;12.50;96.40
3690;DHT22;1861;50.240;8.596;2023-04-25T08:36:43;12.50;96.60
3690;DHT22;1861;50.240;8.596;2023-04-25T08:39:38;12.40;96.20
3690;DHT22;1861;50.240;8.596;2023-04-25T08:42:31;12.40;96.20
3690;DHT22;1861;50.240;8.596;2023-04-25T08:45:02;12.40;96.30
3690;DHT22;1861;50.240;8.596;2023-04-25T08:47:37;12.50;96.30
3690;DHT22;1861;50.240;8.596;2023-04-25T08:50:06;12.60;96.10
3690;DHT22;1861;50.240;8.596;2023-04-25T08:52:37;12.60;96.30
3690;DHT22;1861;50.240;8.596;2023-04-25T08:55:12;12.50;96.10
3690;DHT22;1861;50.240;8.596;2023-04-25T08:57:42;12.50;96.00
3690;DHT22;1861;50.240;8.596;2023-04-25T09:00:11;12.50;96.00
3690;DHT22;1861;50.240;8.596;2023-04-25T09:02:42;12.50;96.00
3690;DHT22;1861;50.240;8.596;2023-04-25T09:05:13;12.50;95.90
3690;DHT22;1861;50.240;8.596;2023-04-25T09:07:42;12.60;95.70
3690;DHT22;1861;50.240;8.596;2023-04-25T09:10:11;12.70;95.40
3690;DHT22;1861;50.240;8.596;2023-04-25T09:12:40;12.70;95.70
3690;DHT22;1861;50.240;8.596;2023-04-25T09:15:10;12.90;95.80
3690;DHT22;1861;50.240;8.596;2023-04-25T09:18:08;12.80;95.60
3690;DHT22;1861;50.240;8.596;2023-04-25T09:20:42;12.90;95.70
3690;DHT22;1861;50.240;8.596;2023-04-25T09:23:28;13.00;95.50
3690;DHT22;1861;50.240;8.596;2023-04-25T09:25:58;13.10;95.20
3690;DHT22;1861;50.240;8.596;2023-04-25T09:28:26;13.20;95.30
3690;DHT22;1861;50.240;8.596;2023-04-25T09:30:58;13.20;94.80
3690;DHT22;1861;50.240;8.596;2023-04-25T09:33:33;13.10;94.50
3690;DHT22;1861;50.240;8.596;2023-04-25T09:36:06;13.10;94.80
3690;DHT22;1861;50.240;8.596;2023-04-25T09:38:54;13.10;94.80
3690;DHT22;1861;50.240;8.596;2023-04-25T09:41:28;13.20;94.70
3690;DHT22;1861;50.240;8.596;2023-04-25T09:44:00;13.20;94.60
3690;DHT22;1861;50.240;8.596;2023-04-25T09:46:36;13.20;94.90
3690;DHT22;1861;50.240;8.596;2023-04-25T09:49:14;13.30;94.90
3690;DHT22;1861;50.240;8.596;2023-04-25T09:51:55;13.40;94.80
3690;DHT22;1861;50.240;8.596;2023-04-25T09:54:26;13.30;94.20
3690;DHT22;1861;50.240;8.596;2023-04-25T09:57:18;13.20;94.30
3690;DHT22;1861;50.240;8.596;2023-04-25T09:59:49;13.30;94.40
3690;DHT22;1861;50.240;8.596;2023-04-25T10:02:18;13.30;94.20
3690;DHT22;1861;50.240;8.596;2023-04-25T10:04:50;13.20;94.10
3690;DHT22;1861;50.240;8.596;2023-04-25T10:07:30;13.10;94.40
3690;DHT22;1861;50.240;8.596;2023-04-25T10:10:01;13.00;94.70
3690;DHT22;1861;50.240;8.596;2023-04-25T10:12:33;12.90;95.10
3690;DHT22;1861;50.240;8.596;2023-04-25T10:15:03;12.90;95.30
3690;DHT22;1861;50.240;8.596;2023-04-25T10:17:32;12.80;95.30
3690;DHT22;1861;50.240;8.596;2023-04-25T10:20:02;12.70;95.10
3690;DHT22;1861;50.240;8.596;2023-04-25T10:22:34;12.60;95.40
3690;DHT22;1861;50.240;8.596;2023-04-25T10:25:04;12.60;95.40
3690;DHT22;1861;50.240;8.596;2023-04-25T10:27:34;12.60;95.50
3690;DHT22;1861;50.240;8.596;2023-04-25T10:30:05;12.60;95.50
3690;DHT22;1861;50.240;8.596;2023-04-25T10:32:37;12.60;95.40
3690;DHT22;1861;50.240;8.596;2023-04-25T10:35:13;12.60;95.70
3690;DHT22;1861;50.240;8.596;2023-04-25T10:37:57;12.60;96.00
3690;DHT22;1861;50.240;8.596;2023-04-25T10:40:26;12.70;95.50
3690;DHT22;1861;50.240;8.596;2023-04-25T10:42:55;12.70;95.40
3690;DHT22;1861;50.240;8.596;2023-04-25T10:45:53;12.80;95.30
3690;DHT22;1861;50.240;8.596;2023-04-25T10:48:27;12.80;95.30
3690;DHT22;1861;50.240;8.596;2023-04-25T10:51:07;12.80;95.00
3690;DHT22;1861;50.240;8.596;2023-04-25T10:53:36;12.80;94.80
3690;DHT22;1861;50.240;8.596;2023-04-25T10:56:10;12.80;94.70
3690;DHT22;1861;50.240;8.596;2023-04-25T10:58:45;12.70;94.60
3690;DHT22;1861;50.240;8.596;2023-04-25T11:01:21;12.80;94.30
3690;DHT22;1861;50.240;8.596;2023-04-25T11:03:49;12.80;94.30
3690;DHT22;1861;50.240;8.596;2023-04-25T11:06:29;12.80;93.60
3690;DHT22;1861;50.240;8.596;2023-04-25T11:09:01;12.80;93.70
3690;DHT22;1861;50.240;8.596;2023-04-25T11:11:29;12.70;92.90
3690;DHT22;1861;50.240;8.596;2023-04-25T11:13:59;12.70;92.80
3690;DHT22;1861;50.240;8.596;2023-04-25T11:16:27;12.90;92.70
3690;DHT22;1861;50.240;8.596;2023-04-25T11:18:58;12.90;92.50
3690;DHT22;1861;50.240;8.596;2023-04-25T11:21:26;13.20;92.80
3690;DHT22;1861;50.240;8.596;2023-04-25T11:23:56;13.50;92.80
3690;DHT22;1861;50.240;8.596;2023-04-25T11:26:24;13.60;92.60
3690;DHT22;1861;50.240;8.596;2023-04-25T11:28:58;13.50;92.10
3690;DHT22;1861;50.240;8.596;2023-04-25T11:31:27;13.40;92.00
3690;DHT22;1861;50.240;8.596;2023-04-25T11:33:56;13.30;91.50
3690;DHT22;1861;50.240;8.596;2023-04-25T11:36:25;13.20;91.70
3690;DHT22;1861;50.240;8.596;2023-04-25T11:38:54;13.30;91.90
3690;DHT22;1861;50.240;8.596;2023-04-25T11:41:22;13.30;91.60
3690;DHT22;1861;50.240;8.596;2023-04-25T11:43:52;13.40;91.80
3690;DHT22;1861;50.240;8.596;2023-04-25T11:46:23;13.40;91.60
3690;DHT22;1861;50.240;8.596;2023-04-25T11:48:51;13.30;91.70
3690;DHT22;1861;50.240;8.596;2023-04-25T11:51:19;13.20;91.40
3690;DHT22;1861;50.240;8.596;2023-04-25T11:53:48;13.10;91.50
3690;DHT22;1861;50.240;8.596;2023-04-25T11:56:17;13.10;91.50
3690;DHT22;1861;50.240;8.596;2023-04-25T11:58:54;13.10;91.40
3690;DHT22;1861;50.240;8.596;2023-04-25T12:01:28;13.00;91.50
3690;DHT22;1861;50.240;8.596;2023-04-25T12:04:11;12.90;91.40
3690;DHT22;1861;50.240;8.596;2023-04-25T12:06:41;12.90;91.60
3690;DHT22;1861;50.240;8.596;2023-04-25T12:09:10;12.90;91.60
3690;DHT22;1861;50.240;8.596;2023-04-25T12:11:43;12.80;91.60
3690;DHT22;1861;50.240;8.596;2023-04-25T12:14:11;12.80;91.60
3690;DHT22;1861;50.240;8.596;2023-04-25T12:16:42;12.70;91.80
3690;DHT22;1861;50.240;8.596;2023-04-25T12:19:13;12.70;91.80
3690;DHT22;1861;50.240;8.596;2023-04-25T12:21:42;12.70;92.00
3690;DHT22;1861;50.240;8.596;2023-04-25T12:24:18;12.70;91.50
3690;DHT22;1861;50.240;8.596;2023-04-25T12:26:52;12.70;91.70
3690;DHT22;1861;50.240;8.596;2023-04-25T12:29:22;12.70;91.70
3690;DHT22;1861;50.240;8.596;2023-04-25T12:31:55;12.70;91.90
3690;DHT22;1861;50.240;8.596;2023-04-25T12:34:24;12.80;92.00
3690;DHT22;1861;50.240;8.596;2023-04-25T12:36:53;13.00;91.80
3690;DHT22;1861;50.240;8.596;2023-04-25T12:39:22;13.00;91.50
3690;DHT22;1861;50.240;8.596;2023-04-25T12:41:51;13.10;91.70
3690;DHT22;1861;50.240;8.596;2023-04-25T12:44:20;13.10;91.50
3690;DHT22;1861;50.240;8.596;2023-04-25T12:46:48;13.10;91.80
3690;DHT22;1861;50.240;8.596;2023-04-25T12:49:18;13.20;91.10
3690;DHT22;1861;50.240;8.596;2023-04-25T12:51:46;13.10;90.50
3690;DHT22;1861;50.240;8.596;2023-04-25T12:54:14;13.20;91.10
3690;DHT22;1861;50.240;8.596;2023-04-25T12:56:42;13.40;91.10
3690;DHT22;1861;50.240;8.596;2023-04-25T12:59:11;13.50;91.00
3690;DHT22;1861;50.240;8.596;2023-04-25T13:01:39;13.60;91.20
3690;DHT22;1861;50.240;8.596;2023-04-25T13:04:07;13.50;90.90
3690;DHT22;1861;50.240;8.596;2023-04-25T13:06:37;13.40;91.30
3690;DHT22;1861;50.240;8.596;2023-04-25T13:09:05;13.30;91.10
3690;DHT22;1861;50.240;8.596;2023-04-25T13:11:34;13.10;90.30
3690;DHT22;1861;50.240;8.596;2023-04-25T13:14:02;13.00;90.40
3690;DHT22;1861;50.240;8.596;2023-04-25T13:16:30;13.00;90.80
3690;DHT22;1861;50.240;8.596;2023-04-25T13:18:58;13.00;90.40
3690;DHT22;1861;50.240;8.596;2023-04-25T13:21:26;13.10;90.10
3690;DHT22;1861;50.240;8.596;2023-04-25T13:23:56;13.10;90.10
3690;DHT22;1861;50.240;8.596;2023-04-25T13:26:24;13.20;89.70
3690;DHT22;1861;50.240;8.596;2023-04-25T13:28:52;13.20;89.70
3690;DHT22;1861;50.240;8.596;2023-04-25T13:31:20;13.20;90.00
3690;DHT22;1861;50.240;8.596;2023-04-25T13:33:48;13.20;89.80
3690;DHT22;1861;50.240;8.596;2023-04-25T13:36:17;13.20;89.60
3690;DHT22;1861;50.240;8.596;2023-04-25T13:38:45;13.20;89.30
3690;DHT22;1861;50.240;8.596;2023-04-25T13:41:16;13.30;89.80
3690;DHT22;1861;50.240;8.596;2023-04-25T13:43:46;13.40;89.00
3690;DHT22;1861;50.240;8.596;2023-04-25T13:46:15;13.40;88.50
3690;DHT22;1861;50.240;8.596;2023-04-25T13:49:04;13.60;89.50
3690;DHT22;1861;50.240;8.596;2023-04-25T13:51:39;13.60;88.50
3690;DHT22;1861;50.240;8.596;2023-04-25T13:54:07;13.60;88.20
3690;DHT22;1861;50.240;8.596;2023-04-25T13:56:37;13.60;87.40
3690;DHT22;1861;50.240;8.596;2023-04-25T13:59:05;13.50;86.90
3690;DHT22;1861;50.240;8.596;2023-04-25T14:01:33;13.50;86.90
3690;DHT22;1861;50.240;8.596;2023-04-25T14:04:02;13.50;86.30
3690;DHT22;1861;50.240;8.596;2023-04-25T14:06:32;13.40;86.10
3690;DHT22;1861;50.240;8.596;2023-04-25T14:09:00;13.40;85.90
3690;DHT22;1861;50.240;8.596;2023-04-25T14:11:28;13.40;86.50
3690;DHT22;1861;50.240;8.596;2023-04-25T14:13:57;13.40;86.50
3690;DHT22;1861;50.240;8.596;2023-04-25T14:16:25;13.40;86.50
3690;DHT22;1861;50.240;8.596;2023-04-25T14:18:54;13.40;86.70
3690;DHT22;1861;50.240;8.596;2023-04-25T14:21:22;13.50;86.10
3690;DHT22;1861;50.240;8.596;2023-04-25T14:23:50;13.40;86.70
3690;DHT22;1861;50.240;8.596;2023-04-25T14:26:18;13.50;86.20
3690;DHT22;1861;50.240;8.596;2023-04-25T14:28:47;13.40;85.40
3690;DHT22;1861;50.240;8.596;2023-04-25T14:31:16;13.40;85.70
3690;DHT22;1861;50.240;8.596;2023-04-25T14:33:44;13.40;85.60
3690;DHT22;1861;50.240;8.596;2023-04-25T14:36:12;13.30;85.20
3690;DHT22;1861;50.240;8.596;2023-04-25T14:38:41;13.30;86.00
3690;DHT22;1861;50.240;8.596;2023-04-25T14:41:09;13.40;86.50
3690;DHT22;1861;50.240;8.596;2023-04-25T14:43:37;13.40;86.70
3690;DHT22;1861;50.240;8.596;2023-04-25T14:46:06;13.40;86.50
3690;DHT22;1861;50.240;8.596;2023-04-25T14:48:36;13.40;87.00
3690;DHT22;1861;50.240;8.596;2023-04-25T14:51:04;13.40;85.90
3690;DHT22;1861;50.240;8.596;2023-04-25T14:53:33;13.40;85.10
3690;DHT22;1861;50.240;8.596;2023-04-25T14:56:01;13.30;85.30
3690;DHT22;1861;50.240;8.596;2023-04-25T14:58:29;13.30;84.30
3690;DHT22;1861;50.240;8.596;2023-04-25T15:00:57;13.30;84.80
3690;DHT22;1861;50.240;8.596;2023-04-25T15:03:26;13.30;84.40
3690;DHT22;1861;50.240;8.596;2023-04-25T15:05:55;13.30;84.70
3690;DHT22;1861;50.240;8.596;2023-04-25T15:08:23;13.40;85.40
3690;DHT22;1861;50.240;8.596;2023-04-25T15:10:52;13.50;84.60
3690;DHT22;1861;50.240;8.596;2023-04-25T15:13:20;13.40;84.50
3690;DHT22;1861;50.240;8.596;2023-04-25T15:15:48;13.40;84.50
3690;DHT22;1861;50.240;8.596;2023-04-25T15:18:19;13.20;84.50
3690;DHT22;1861;50.240;8.596;2023-04-25T15:20:49;13.30;84.90
3690;DHT22;1861;50.240;8.596;2023-04-25T15:23:20;13.40;85.50
3690;DHT22;1861;50.240;8.596;2023-04-25T15:25:50;13.60;85.30
3690;DHT22;1861;50.240;8.596;2023-04-25T15:28:18;13.60;84.80
3690;DHT22;1861;50.240;8.596;2023-04-25T15:30:48;13.70;85.20
3690;DHT22;1861;50.240;8.596;2023-04-25T15:33:17;13.80;84.70
3690;DHT22;1861;50.240;8.596;2023-04-25T15:35:45;13.80;84.60
3690;DHT22;1861;50.240;8.596;2023-04-25T15:38:13;13.80;84.80
3690;DHT22;1861;50.240;8.596;2023-04-25T15:40:42;13.80;84.00
3690;DHT22;1861;50.240;8.596;2023-04-25T15:43:11;13.80;83.40
3690;DHT22;1861;50.240;8.596;2023-04-25T15:45:42;13.90;83.90
3690;DHT22;1861;50.240;8.596;2023-04-25T15:48:11;13.80;83.70
3690;DHT22;1861;50.240;8.596;2023-04-25T15:50:40;13.80;83.30
3690;DHT22;1861;50.240;8.596;2023-04-25T15:53:08;13.80;83.10
3690;DHT22;1861;50.240;8.596;2023-04-25T15:55:36;13.80;83.40
3690;DHT22;1861;50.240;8.596;2023-04-25T15:58:06;13.90;84.00
3690;DHT22;1861;50.240;8.596;2023-04-25T16:00:38;13.90;83.80
3690;DHT22;1861;50.240;8.596;2023-04-25T16:03:07;13.90;83.70
3690;DHT22;1861;50.240;8.596;2023-04-25T16:05:35;13.90;83.90
3690;DHT22;1861;50.240;8.596;2023-04-25T16:08:04;13.90;83.70
3690;DHT22;1861;50.240;8.596;2023-04-25T16:10:32;13.90;83.40
3690;DHT22;1861;50.240;8.596;2023-04-25T16:13:00;13.80;83.60
3690;DHT22;1861;50.240;8.596;2023-04-25T16:15:30;13.70;83.60
3690;DHT22;1861;50.240;8.596;2023-04-25T16:18:01;13.60;83.60
3690;DHT22;1861;50.240;8.596;2023-04-25T16:20:29;13.60;82.90
3690;DHT22;1861;50.240;8.596;2023-04-25T16:22:58;13.40;83.60
3690;DHT22;1861;50.240;8.596;2023-04-25T16:25:27;13.40;83.20
3690;DHT22;1861;50.240;8.596;2023-04-25T16:27:55;13.30;83.20
3690;DHT22;1861;50.240;8.596;2023-04-25T16:30:23;13.30;83.00